Portada
METAR-TAF:

METAR-TAF

Aeroports :

Fuzhou, Xina

latitud: 26-05N, longitud: 119-17E, altitud: 85 m

Observació

L'informe es va fer fa 34 minuts, a les 11:00 UTC
Vent 17 kt del Nord-Est
Temperatura 19°C
Humitat 68%
Pressió 1020 hPa
Visibilitat 10 km o més
Cel ennuvolat a una alçada de 4300 ft

METAR: ZSFZ 211100Z 04009MPS 9999 BKN043 19/13 Q1020 NOSIG

Hora: 19:34 (11:34 UTC)

Pronòstic

L'informe es va fer fa 8 hores i 29 minuts, a les 03:05 UTC
Pronòstic vàlid del 21 a les 06 UTC al 22 a les 06 UTC
Vent 14 kt del Nord/Nord-Est
Visibilitat: 6000 m
Cel ennuvolat a una alçada de 3000 ft

TAF: ZSFZ 210305Z 2106/2206 02007MPS 6000 BKN030 TX20/2106Z TN17/2121Z

Observacions i pronòstics meteorològics de més de 4000 aeroports (METAR i TAF).

Les estacions disponibles són els punts grocs i vermells al mapa.

Posi el ratolí al punt desitjat per veure el nom de l'estació.

Feu clic per veure les observacions i els pronòstics meteorològics.

Per canviar el mapa: feu clic els botons verds amb una creu de color negre per apropar; al botó verd amb un guió per allunyar la imatge; o en les fletxes verdes per a mapes adjacents.


METAR-TAF: